Fort Benning, Lawson Army Airfield (KLSF)

NameLawson Army Airfield
CityFort Benning
CountryUnited States
ICAOKLSF
IATALSF
Altitude71 m
CoordinatesGoogle Map
Live Air TrafficLiveATC.net
METARKLSF 150302Z AUTO 00000KT 10SM FEW004 FEW008 SCT014 BKN028 OVC035 17/17 A2989 RMK AO2 RAE0256 CIG 018V028 BKN V OVC SLP126
2018-12-15 03:02:00 Wind: North (0°) 0 m/s - Visibility: 16093.4 m - Temperature: 17 °C - Dew point: 17 °C - Humidity: 100% - Pressure: 1012.19 hPa

Sorry, no flights used the airport in this database.